Time;durP1;ratioP1;P1;durP2;ratioP2;P2;SDS_P1;SDS_P2;PMS_P1;PMS_P2;Temp;Humidity;BMP_temperature;BMP_pressure;BME280_temperature;BME280_humidity;BME280_pressure;Samples;Min_cycle;Max_cycle;Signal;HPM_P1;HPM_P2
2023/06/17 00:00:23;;;;;;;4.28;3.00;;;19.30;72.90;;;;;;5024269;28;20559;-32
2023/06/17 00:02:49;;;;;;;3.50;3.20;;;19.30;73.20;;;;;;5024702;28;20104;-34
2023/06/17 00:05:14;;;;;;;5.10;3.22;;;19.30;73.30;;;;;;5024496;28;20496;-34
2023/06/17 00:07:41;;;;;;;5.13;3.63;;;19.30;73.40;;;;;;5023618;28;20047;-34
2023/06/17 00:10:07;;;;;;;4.78;3.10;;;19.30;73.50;;;;;;5024925;28;20013;-35
2023/06/17 00:12:33;;;;;;;3.67;3.15;;;19.30;73.60;;;;;;5024970;28;20108;-33
2023/06/17 00:15:01;;;;;;;3.10;2.90;;;19.30;73.60;;;;;;5023555;28;20120;-34
2023/06/17 00:17:30;;;;;;;3.15;2.85;;;19.30;73.70;;;;;;5023865;28;20053;-33
2023/06/17 00:20:01;;;;;;;7.18;2.90;;;19.30;73.80;;;;;;5024193;28;20030;-33
2023/06/17 00:22:29;;;;;;;3.42;3.10;;;19.30;73.80;;;;;;5023119;28;20044;-34
2023/06/17 00:24:56;;;;;;;3.47;3.17;;;19.20;73.90;;;;;;5024531;28;20021;-33
2023/06/17 00:27:21;;;;;;;3.72;2.97;;;19.20;74.00;;;;;;5023510;28;20473;-34
2023/06/17 00:29:47;;;;;;;5.75;3.25;;;19.20;74.20;;;;;;5024061;28;20083;-34
2023/06/17 00:32:13;;;;;;;5.32;3.40;;;19.10;74.20;;;;;;5024122;28;20100;-34
2023/06/17 00:34:41;;;;;;;3.28;2.97;;;19.10;74.40;;;;;;5023612;28;20717;-33
2023/06/17 00:37:07;;;;;;;4.35;2.90;;;19.10;74.60;;;;;;5023774;28;20030;-33
2023/06/17 00:39:33;;;;;;;3.28;2.97;;;19.10;74.80;;;;;;5024000;28;20032;-34
2023/06/17 00:42:01;;;;;;;3.67;3.00;;;19.00;74.70;;;;;;5024259;28;20029;-34
2023/06/17 00:44:26;;;;;;;4.13;3.13;;;19.00;74.90;;;;;;5023425;28;20017;-35
2023/06/17 00:46:54;;;;;;;3.78;3.00;;;19.00;75.00;;;;;;5023912;28;20046;-34
2023/06/17 00:49:34;;;;;;;3.97;3.20;;;18.90;75.20;;;;;;5023541;28;20029;-33
2023/06/17 00:52:04;;;;;;;3.47;3.17;;;18.90;75.20;;;;;;5024454;28;20480;-33
2023/06/17 00:54:32;;;;;;;5.05;3.33;;;18.90;75.50;;;;;;5023357;28;20095;-32
2023/06/17 00:56:59;;;;;;;4.05;3.67;;;18.90;75.70;;;;;;5023510;28;20042;-34
2023/06/17 00:59:25;;;;;;;5.00;3.45;;;18.90;75.70;;;;;;5023313;28;20128;-34
2023/06/17 01:01:51;;;;;;;3.95;3.65;;;18.80;75.90;;;;;;5004789;28;20030;-33
2023/06/17 01:04:16;;;;;;;5.18;3.60;;;18.80;76.00;;;;;;5016944;28;20021;-34
2023/06/17 01:06:55;;;;;;;3.45;3.15;;;18.70;76.10;;;;;;5023792;28;20045;-33
2023/06/17 01:09:27;;;;;;;4.25;3.53;;;18.70;76.20;;;;;;5022979;28;20057;-33
2023/06/17 01:11:56;;;;;;;3.45;3.15;;;18.70;76.30;;;;;;5022705;28;20835;-34
2023/06/17 01:14:23;;;;;;;3.70;3.40;;;18.70;76.40;;;;;;5024072;28;20487;-35
2023/06/17 01:16:51;;;;;;;3.92;3.30;;;18.60;76.40;;;;;;5024928;28;20029;-33
2023/06/17 01:19:24;;;;;;;3.40;3.10;;;18.50;76.60;;;;;;5023654;28;20024;-34
2023/06/17 01:21:56;;;;;;;4.50;3.28;;;18.40;76.90;;;;;;5023725;28;20045;-34
2023/06/17 01:24:33;;;;;;;4.20;3.50;;;18.40;77.20;;;;;;5023614;28;20076;-34
2023/06/17 01:27:00;;;;;;;3.65;3.35;;;18.40;77.50;;;;;;5024189;28;20096;-35
2023/06/17 01:29:30;;;;;;;3.95;3.58;;;18.30;77.60;;;;;;5023653;28;20049;-34
2023/06/17 01:31:57;;;;;;;5.38;3.70;;;18.30;77.60;;;;;;5023142;28;20500;-34
2023/06/17 01:34:48;;;;;;;4.03;3.63;;;18.20;77.70;;;;;;5026161;28;20484;-33
2023/06/17 01:37:36;;;;;;;5.70;4.10;;;18.10;78.20;;;;;;5000035;28;20557;-33
2023/06/17 01:40:04;;;;;;;4.05;3.65;;;18.10;78.60;;;;;;5008964;28;20065;-34
2023/06/17 01:42:43;;;;;;;5.65;3.90;;;18.20;78.80;;;;;;5027418;28;20041;-34
2023/06/17 01:45:10;;;;;;;4.78;3.95;;;18.20;78.90;;;;;;5027003;28;20498;-35
2023/06/17 01:47:36;;;;;;;5.90;4.43;;;18.20;79.00;;;;;;5026025;28;20041;-34
2023/06/17 01:50:03;;;;;;;5.55;4.00;;;18.10;79.00;;;;;;5026530;28;20025;-34
2023/06/17 01:52:29;;;;;;;4.28;3.85;;;18.10;79.00;;;;;;5026713;28;20052;-35
2023/06/17 01:54:55;;;;;;;5.18;4.10;;;18.10;79.20;;;;;;5026043;28;20033;-34
2023/06/17 01:57:25;;;;;;;3.90;3.50;;;18.10;79.30;;;;;;5026555;28;20044;-34
2023/06/17 01:59:52;;;;;;;3.92;3.60;;;18.00;79.40;;;;;;5026424;28;20036;-33
2023/06/17 02:02:21;;;;;;;5.57;4.47;;;17.90;79.50;;;;;;5026411;28;20092;-34
2023/06/17 02:04:47;;;;;;;7.65;3.97;;;17.90;80.00;;;;;;5026838;28;20572;-34
2023/06/17 02:07:13;;;;;;;5.20;4.70;;;17.90;80.30;;;;;;5026162;28;20430;-35
2023/06/17 02:09:40;;;;;;;5.75;5.05;;;17.90;80.50;;;;;;5026885;28;20032;-34
2023/06/17 02:12:06;;;;;;;6.07;5.00;;;17.90;81.30;;;;;;5026770;28;20493;-33
2023/06/17 02:14:33;;;;;;;5.45;4.78;;;17.90;80.90;;;;;;5026290;28;20029;-33
2023/06/17 02:17:03;;;;;;;5.18;4.53;;;17.80;81.10;;;;;;5026469;28;20029;-34
2023/06/17 02:19:31;;;;;;;5.35;4.63;;;17.80;81.30;;;;;;5007976;28;20030;-33
2023/06/17 02:21:57;;;;;;;5.88;4.85;;;17.80;81.60;;;;;;5021205;28;20105;-34
2023/06/17 02:24:23;;;;;;;5.63;4.72;;;17.80;81.90;;;;;;5025817;28;20393;-34
2023/06/17 02:26:50;;;;;;;5.25;4.75;;;17.80;82.10;;;;;;5025452;28;20076;-35
2023/06/17 02:29:16;;;;;;;8.43;4.47;;;17.80;82.10;;;;;;5025881;28;20018;-34
2023/06/17 02:31:42;;;;;;;4.75;4.35;;;17.70;82.00;;;;;;5026139;28;20113;-33
2023/06/17 02:34:10;;;;;;;5.38;4.78;;;17.60;82.10;;;;;;5025400;28;20207;-33
2023/06/17 02:36:39;;;;;;;5.75;4.47;;;17.60;82.20;;;;;;5025272;28;20022;-32
2023/06/17 02:39:06;;;;;;;5.35;4.85;;;17.50;82.30;;;;;;5026212;28;20021;-33
2023/06/17 02:41:35;;;;;;;7.13;5.00;;;17.50;83.40;;;;;;5025027;28;20045;-33
2023/06/17 02:44:00;;;;;;;5.30;4.80;;;17.50;83.00;;;;;;5025329;28;20179;-32
2023/06/17 02:46:29;;;;;;;5.43;4.93;;;17.40;83.10;;;;;;5025426;28;20125;-34
2023/06/17 02:48:55;;;;;;;5.88;4.97;;;17.40;83.10;;;;;;5025095;28;20064;-35
2023/06/17 02:51:21;;;;;;;5.70;5.15;;;17.40;83.20;;;;;;5025667;28;20804;-38
2023/06/17 02:53:47;;;;;;;5.38;4.43;;;17.30;83.50;;;;;;5026161;28;20179;-33
2023/06/17 02:56:12;;;;;;;6.68;5.03;;;17.20;83.80;;;;;;5024580;28;20889;-34
2023/06/17 02:58:38;;;;;;;5.57;5.07;;;17.10;84.20;;;;;;5025408;28;20025;-33
2023/06/17 03:01:24;;;;;;;5.45;4.95;;;17.10;84.20;;;;;;5026000;28;20344;-35
2023/06/17 03:03:54;;;;;;;6.95;5.07;;;17.10;84.50;;;;;;5023037;28;20065;-35
2023/06/17 03:06:21;;;;;;;5.32;4.72;;;17.10;84.60;;;;;;5024803;28;20022;-34
2023/06/17 03:08:47;;;;;;;7.10;5.43;;;17.10;84.60;;;;;;5025372;28;20072;-33
2023/06/17 03:11:16;;;;;;;6.70;5.90;;;17.10;84.90;;;;;;5024744;28;20100;-33
2023/06/17 03:13:41;;;;;;;7.57;5.20;;;17.10;85.10;;;;;;5024936;28;20116;-33
2023/06/17 03:16:07;;;;;;;6.75;5.45;;;17.10;85.20;;;;;;5024990;28;20279;-35
2023/06/17 03:18:32;;;;;;;7.45;5.97;;;17.10;85.30;;;;;;5024690;28;20061;-35
2023/06/17 03:20:58;;;;;;;9.32;5.30;;;17.10;85.30;;;;;;5025310;28;20511;-33
2023/06/17 03:23:24;;;;;;;6.57;5.28;;;17.10;85.30;;;;;;5024666;28;20029;-33
2023/06/17 03:25:53;;;;;;;6.78;5.82;;;17.10;85.30;;;;;;5024967;28;20029;-33
2023/06/17 03:28:19;;;;;;;5.72;5.18;;;17.00;85.40;;;;;;5023758;28;20095;-34
2023/06/17 03:30:45;;;;;;;6.93;5.47;;;17.10;85.40;;;;;;5024906;28;20029;-35
2023/06/17 03:33:12;;;;;;;5.78;5.18;;;17.00;85.50;;;;;;5024419;28;20025;-34
2023/06/17 03:35:38;;;;;;;6.20;5.60;;;16.80;85.80;;;;;;5024867;28;20029;-33
2023/06/17 03:38:04;;;;;;;7.10;6.40;;;16.70;86.30;;;;;;5025612;28;20382;-34
2023/06/17 03:40:29;;;;;;;7.47;6.75;;;16.70;87.30;;;;;;5024330;28;20065;-33
2023/06/17 03:42:55;;;;;;;7.57;6.72;;;16.70;86.70;;;;;;5025391;28;20049;-33
2023/06/17 03:45:21;;;;;;;8.10;6.50;;;16.70;86.80;;;;;;5023839;28;20110;-34
2023/06/17 03:47:47;;;;;;;6.90;6.20;;;16.70;86.70;;;;;;5025146;28;20040;-33
2023/06/17 03:50:13;;;;;;;8.07;6.13;;;16.70;86.90;;;;;;5024099;28;20021;-32
2023/06/17 03:52:38;;;;;;;6.63;5.90;;;16.70;86.90;;;;;;5024325;28;20073;-33
2023/06/17 03:55:04;;;;;;;8.90;6.28;;;16.80;86.90;;;;;;5023899;28;20029;-34
2023/06/17 03:57:30;;;;;;;6.82;6.00;;;16.80;87.00;;;;;;5024285;28;20057;-34
2023/06/17 03:59:58;;;;;;;6.80;5.47;;;16.80;87.00;;;;;;5023793;28;20396;-33
2023/06/17 04:02:24;;;;;;;5.55;5.00;;;16.80;87.10;;;;;;5024645;28;20041;-33
2023/06/17 04:04:52;;;;;;;6.63;5.75;;;16.80;87.00;;;;;;5024266;28;20017;-33
2023/06/17 04:07:19;;;;;;;5.70;5.20;;;16.80;87.10;;;;;;5023303;28;20041;-34
2023/06/17 04:09:45;;;;;;;6.25;5.65;;;16.80;87.40;;;;;;5024373;28;20495;-33
2023/06/17 04:12:13;;;;;;;6.13;5.55;;;16.80;87.40;;;;;;5024239;28;20026;-34
2023/06/17 04:14:38;;;;;;;6.53;5.93;;;16.90;87.30;;;;;;5023942;28;20026;-34
2023/06/17 04:17:06;;;;;;;6.25;5.55;;;16.90;87.40;;;;;;5024392;28;20091;-36
2023/06/17 04:19:37;;;;;;;5.72;5.07;;;16.90;87.40;;;;;;5024453;28;20053;-33
2023/06/17 04:22:11;;;;;;;6.93;5.18;;;16.90;87.40;;;;;;5023830;28;20215;-33
2023/06/17 04:24:38;;;;;;;6.05;5.45;;;16.90;87.60;;;;;;5024178;28;20106;-33
2023/06/17 04:27:05;;;;;;;7.78;5.70;;;17.00;87.60;;;;;;5024071;28;20107;-34
2023/06/17 04:29:34;;;;;;;5.93;5.32;;;17.00;87.60;;;;;;5024315;28;20080;-33
2023/06/17 04:32:01;;;;;;;5.50;5.00;;;17.00;87.70;;;;;;5023723;28;20029;-34
2023/06/17 04:34:26;;;;;;;6.72;5.65;;;17.00;87.80;;;;;;5023480;28;20705;-33
2023/06/17 04:36:58;;;;;;;6.22;5.63;;;17.00;87.90;;;;;;5024404;28;20029;-32
2023/06/17 04:39:25;;;;;;;6.35;5.65;;;17.00;88.00;;;;;;5023559;28;20034;-33
2023/06/17 04:41:51;;;;;;;6.40;5.80;;;17.00;88.10;;;;;;5024044;28;20030;-34
2023/06/17 04:44:19;;;;;;;6.75;5.80;;;17.10;88.20;;;;;;5024518;28;20075;-34
2023/06/17 04:46:45;;;;;;;6.68;5.63;;;17.10;88.20;;;;;;5024208;28;20059;-34
2023/06/17 04:49:14;;;;;;;6.22;5.63;;;17.20;88.70;;;;;;5023588;28;20477;-34
2023/06/17 04:51:40;;;;;;;6.60;5.22;;;17.20;88.10;;;;;;5024047;28;20112;-34
2023/06/17 04:54:06;;;;;;;8.43;7.22;;;17.20;88.10;;;;;;5023399;28;20053;-34
2023/06/17 04:56:32;;;;;;;7.80;6.60;;;17.20;88.60;;;;;;5023155;28;20031;-34
2023/06/17 04:58:58;;;;;;;7.72;6.72;;;17.20;88.70;;;;;;5024482;28;20041;-33
2023/06/17 05:01:23;;;;;;;10.27;6.47;;;17.20;88.80;;;;;;5023298;28;20021;-34
2023/06/17 05:03:49;;;;;;;8.10;6.10;;;17.20;88.90;;;;;;5023206;28;20025;-34
2023/06/17 05:06:14;;;;;;;6.68;6.07;;;17.20;88.90;;;;;;5024078;28;20041;-33
2023/06/17 05:08:40;;;;;;;7.63;6.78;;;17.30;89.00;;;;;;5027276;28;20033;-34
2023/06/17 05:11:05;;;;;;;11.07;8.70;;;17.30;89.10;;;;;;5026392;28;20021;-33
2023/06/17 05:13:31;;;;;;;9.50;8.50;;;17.20;90.30;;;;;;5027524;28;20053;-32
2023/06/17 05:15:56;;;;;;;7.93;7.13;;;17.20;90.30;;;;;;5028022;28;20021;-34
2023/06/17 05:18:25;;;;;;;7.28;6.53;;;17.20;90.20;;;;;;5026006;28;20116;-34
2023/06/17 05:20:50;;;;;;;6.60;5.95;;;17.30;90.20;;;;;;5028048;28;20040;-32
2023/06/17 05:23:16;;;;;;;6.90;6.30;;;17.30;90.10;;;;;;5026874;28;20021;-32
2023/06/17 05:25:42;;;;;;;6.15;5.55;;;17.30;90.10;;;;;;5026766;28;20489;-34
2023/06/17 05:28:10;;;;;;;6.93;6.22;;;17.30;90.10;;;;;;5026939;28;20060;-33
2023/06/17 05:30:36;;;;;;;6.47;5.85;;;17.40;90.10;;;;;;5027307;28;20043;-34
2023/06/17 05:33:04;;;;;;;5.97;5.38;;;17.40;90.10;;;;;;5026740;28;20033;-33
2023/06/17 05:35:30;;;;;;;5.60;4.97;;;17.50;90.10;;;;;;5027020;28;20017;-33
2023/06/17 05:37:55;;;;;;;6.15;5.55;;;17.50;90.10;;;;;;5026866;28;20029;-32
2023/06/17 05:40:21;;;;;;;5.82;5.22;;;17.50;90.10;;;;;;5026655;28;20022;-34
2023/06/17 05:42:46;;;;;;;6.78;5.80;;;17.60;90.10;;;;;;5027256;28;20142;-34
2023/06/17 05:45:12;;;;;;;6.38;5.70;;;17.60;90.10;;;;;;5026838;28;20105;-34
2023/06/17 05:47:37;;;;;;;6.72;6.13;;;17.70;90.10;;;;;;5026417;28;20064;-34
2023/06/17 05:50:03;;;;;;;6.50;5.65;;;17.70;90.10;;;;;;5026617;28;20034;-35
2023/06/17 05:52:29;;;;;;;6.65;5.60;;;17.70;90.10;;;;;;5026037;28;20045;-34
2023/06/17 05:54:54;;;;;;;5.55;5.03;;;17.80;90.10;;;;;;5026528;28;20176;-34
2023/06/17 05:57:21;;;;;;;8.20;7.05;;;17.80;90.10;;;;;;5026865;28;20037;-35
2023/06/17 05:59:46;;;;;;;8.07;7.28;;;17.80;90.50;;;;;;5026202;28;20025;-33
2023/06/17 06:02:12;;;;;;;8.38;7.57;;;17.80;90.60;;;;;;5026822;28;20045;-33
2023/06/17 06:04:37;;;;;;;6.97;6.38;;;17.80;90.90;;;;;;5026143;28;20040;-33
2023/06/17 06:07:03;;;;;;;7.60;6.90;;;17.80;90.80;;;;;;5025115;28;20136;-33
2023/06/17 06:09:29;;;;;;;6.60;5.78;;;17.80;91.10;;;;;;5025912;28;20033;-33
2023/06/17 06:11:54;;;;;;;9.60;7.28;;;17.80;90.90;;;;;;5025933;28;20083;-34
2023/06/17 06:14:20;;;;;;;7.63;6.82;;;17.90;91.00;;;;;;5025286;28;20101;-35
2023/06/17 06:16:48;;;;;;;7.05;6.45;;;17.90;91.00;;;;;;5026710;28;20029;-34
2023/06/17 06:19:13;;;;;;;8.95;7.40;;;17.90;91.10;;;;;;5025344;28;20021;-35
2023/06/17 06:21:39;;;;;;;6.82;6.13;;;18.00;91.40;;;;;;5026006;28;20034;-34
2023/06/17 06:24:05;;;;;;;8.75;6.80;;;18.00;91.30;;;;;;5026495;28;20026;-35
2023/06/17 06:26:31;;;;;;;7.10;6.20;;;18.00;91.30;;;;;;5026503;28;20102;-34
2023/06/17 06:28:57;;;;;;;7.32;6.53;;;18.10;91.50;;;;;;5026330;28;20029;-33
2023/06/17 06:31:22;;;;;;;6.78;6.03;;;18.10;91.40;;;;;;5025840;28;20034;-33
2023/06/17 06:33:48;;;;;;;6.72;4.95;;;18.10;91.20;;;;;;5026234;28;20025;-34
2023/06/17 06:36:13;;;;;;;5.20;4.68;;;18.20;91.10;;;;;;5025292;28;20037;-33
2023/06/17 06:38:42;;;;;;;5.18;4.07;;;18.30;90.80;;;;;;5025609;28;20025;-33
2023/06/17 06:41:07;;;;;;;4.32;3.92;;;18.40;90.60;;;;;;5022850;28;20045;-33
2023/06/17 06:43:34;;;;;;;4.38;3.97;;;18.40;90.40;;;;;;5025760;28;20128;-33
2023/06/17 06:46:02;;;;;;;5.35;3.88;;;18.50;90.20;;;;;;5025326;28;20362;-34
2023/06/17 06:48:28;;;;;;;3.58;3.28;;;18.60;90.00;;;;;;5024314;28;20079;-32
2023/06/17 06:50:53;;;;;;;3.63;3.25;;;18.60;89.30;;;;;;5025967;28;20034;-34
2023/06/17 06:53:21;;;;;;;4.35;3.40;;;18.70;88.70;;;;;;5025585;28;20053;-34
2023/06/17 06:55:46;;;;;;;4.18;3.78;;;18.80;88.20;;;;;;5025161;28;20546;-34
2023/06/17 06:58:12;;;;;;;3.45;3.15;;;18.80;87.50;;;;;;5025765;28;20033;-34
2023/06/17 07:00:39;;;;;;;4.55;4.15;;;18.90;87.00;;;;;;5025105;28;20034;-33
2023/06/17 07:03:04;;;;;;;3.75;3.45;;;19.00;86.30;;;;;;5024825;28;20037;-34
2023/06/17 07:05:30;;;;;;;4.05;3.65;;;19.10;84.90;;;;;;5025024;28;20069;-34
2023/06/17 07:07:56;;;;;;;4.43;3.58;;;19.20;83.80;;;;;;5025544;28;20135;-33
2023/06/17 07:10:22;;;;;;;3.55;3.20;;;19.30;83.20;;;;;;5024556;28;20705;-33
2023/06/17 07:12:47;;;;;;;3.58;3.10;;;19.30;82.80;;;;;;5025909;28;20050;-33
2023/06/17 07:15:14;;;;;;;3.80;3.35;;;19.40;82.70;;;;;;5024979;28;20061;-33
2023/06/17 07:17:39;;;;;;;3.00;2.63;;;19.40;82.40;;;;;;5021218;28;20064;-34
2023/06/17 07:20:05;;;;;;;3.38;3.00;;;19.50;82.20;;;;;;5025031;28;20014;-33
2023/06/17 07:22:31;;;;;;;3.65;3.00;;;19.50;81.60;;;;;;5025000;28;20373;-34
2023/06/17 07:24:56;;;;;;;3.70;3.40;;;19.60;79.70;;;;;;5024725;28;20084;-33
2023/06/17 07:27:22;;;;;;;3.20;2.90;;;19.70;78.40;;;;;;5024442;28;20065;-34
2023/06/17 07:29:48;;;;;;;3.28;2.97;;;19.80;78.40;;;;;;5025537;28;20582;-34
2023/06/17 07:32:16;;;;;;;4.93;2.85;;;19.90;78.30;;;;;;5023683;28;20029;-33
2023/06/17 07:34:42;;;;;;;3.30;3.00;;;19.90;77.90;;;;;;5025278;28;20055;-34
2023/06/17 07:37:08;;;;;;;3.17;2.85;;;20.00;78.10;;;;;;5024422;28;20698;-34
2023/06/17 07:39:44;;;;;;;3.83;3.15;;;20.00;77.80;;;;;;5024502;28;20025;-35
2023/06/17 07:42:19;;;;;;;3.60;2.95;;;20.10;78.00;;;;;;5026741;28;20033;-34
2023/06/17 07:44:45;;;;;;;3.10;2.80;;;20.20;78.10;;;;;;5025945;28;20026;-34
2023/06/17 07:47:10;;;;;;;2.97;2.78;;;20.20;78.10;;;;;;5024726;28;20091;-34
2023/06/17 07:49:36;;;;;;;3.40;3.10;;;20.30;78.00;;;;;;5025526;28;20402;-34
2023/06/17 07:52:03;;;;;;;3.22;2.90;;;20.40;77.90;;;;;;5024682;28;20481;-34
2023/06/17 07:54:28;;;;;;;3.55;3.20;;;20.40;77.70;;;;;;5024056;28;20049;-34
2023/06/17 07:56:54;;;;;;;3.20;2.90;;;20.50;76.90;;;;;;5024787;28;20021;-34
2023/06/17 07:59:19;;;;;;;4.22;3.30;;;20.50;76.60;;;;;;5023411;28;20109;-34
2023/06/17 08:01:45;;;;;;;4.20;3.25;;;20.60;76.20;;;;;;5024804;28;20029;-33
2023/06/17 08:04:11;;;;;;;2.90;2.45;;;20.60;75.30;;;;;;5024347;28;20110;-34
2023/06/17 08:06:37;;;;;;;3.42;2.80;;;20.70;74.00;;;;;;5023903;28;20476;-33
2023/06/17 08:09:03;;;;;;;3.28;2.97;;;20.80;74.00;;;;;;5024288;28;20049;-35
2023/06/17 08:11:29;;;;;;;2.75;2.55;;;20.80;73.90;;;;;;5024210;28;20026;-34
2023/06/17 08:13:54;;;;;;;3.20;2.53;;;20.90;73.60;;;;;;5023652;28;20032;-34
2023/06/17 08:16:20;;;;;;;3.10;2.80;;;20.90;73.20;;;;;;5004355;28;20797;-33
2023/06/17 08:18:45;;;;;;;3.30;2.92;;;21.10;72.50;;;;;;5018483;28;20029;-34
2023/06/17 08:21:11;;;;;;;4.32;3.00;;;21.10;71.90;;;;;;5023619;28;20194;-33
2023/06/17 08:23:36;;;;;;;2.80;2.60;;;21.20;71.50;;;;;;5023783;28;20025;-34
2023/06/17 08:26:02;;;;;;;3.72;3.35;;;21.30;71.40;;;;;;5024554;28;20099;-34
2023/06/17 08:28:27;;;;;;;3.78;3.10;;;21.30;69.70;;;;;;5022908;28;20124;-33
2023/06/17 08:30:53;;;;;;;7.07;2.95;;;21.40;69.50;;;;;;5024081;28;20045;-34
2023/06/17 08:33:21;;;;;;;3.00;2.60;;;21.40;69.00;;;;;;5023499;28;20488;-33
2023/06/17 08:35:47;;;;;;;3.35;2.75;;;21.40;68.50;;;;;;5023661;28;20083;-33
2023/06/17 08:38:12;;;;;;;3.47;2.97;;;21.50;67.20;;;;;;5023724;28;20040;-33
2023/06/17 08:40:45;;;;;;;4.00;2.50;;;21.60;67.20;;;;;;5023452;28;20134;-33
2023/06/17 08:43:19;;;;;;;3.25;2.95;;;21.70;67.40;;;;;;5026471;28;20029;-34
2023/06/17 08:45:48;;;;;;;2.90;2.70;;;21.80;67.10;;;;;;5028931;28;20022;-34
2023/06/17 08:48:14;;;;;;;4.15;3.75;;;21.80;66.20;;;;;;5027085;28;20845;-34
2023/06/17 08:50:41;;;;;;;4.70;3.67;;;21.90;64.20;;;;;;5028262;28;20025;-34
2023/06/17 08:53:07;;;;;;;3.75;3.08;;;22.10;63.80;;;;;;5027560;28;20080;-34
2023/06/17 08:55:33;;;;;;;3.78;3.20;;;22.20;64.20;;;;;;5026724;28;20527;-33
2023/06/17 08:57:59;;;;;;;4.53;2.95;;;22.20;63.50;;;;;;5028194;28;20572;-34
2023/06/17 09:00:24;;;;;;;5.18;3.22;;;22.30;63.60;;;;;;5027062;28;20556;-35
2023/06/17 09:02:56;;;;;;;2.88;2.67;;;22.30;62.80;;;;;;5027218;28;20032;-34
2023/06/17 09:05:21;;;;;;;3.55;2.97;;;22.40;63.20;;;;;;5027541;28;20034;-34
2023/06/17 09:07:53;;;;;;;3.20;3.00;;;22.50;63.50;;;;;;5028280;28;20057;-35
2023/06/17 09:10:19;;;;;;;2.92;2.72;;;22.50;63.50;;;;;;5026343;28;20026;-33
2023/06/17 09:12:45;;;;;;;2.60;2.40;;;22.50;63.00;;;;;;5028544;28;20036;-34
2023/06/17 09:15:16;;;;;;;3.10;2.80;;;22.50;63.30;;;;;;5027166;28;20030;-34
2023/06/17 09:17:46;;;;;;;3.72;2.70;;;22.60;63.30;;;;;;5027062;28;20087;-33
2023/06/17 09:20:14;;;;;;;3.20;2.90;;;22.70;63.30;;;;;;5027381;28;20029;-34
2023/06/17 09:22:45;;;;;;;3.45;2.88;;;22.80;63.00;;;;;;5027292;28;20041;-33
2023/06/17 09:25:13;;;;;;;3.00;2.70;;;22.80;62.80;;;;;;5027211;28;20025;-34
2023/06/17 09:27:49;;;;;;;3.75;2.88;;;22.90;62.80;;;;;;5027465;28;20041;-33
2023/06/17 09:30:20;;;;;;;4.30;3.03;;;22.80;62.10;;;;;;5026427;28;20035;-34
2023/06/17 09:32:49;;;;;;;2.80;2.60;;;22.80;61.80;;;;;;5028091;28;20057;-34
2023/06/17 09:35:15;;;;;;;4.07;2.60;;;22.80;61.60;;;;;;5026810;28;20025;-34
2023/06/17 09:37:52;;;;;;;3.83;3.10;;;22.90;61.70;;;;;;5026342;28;20112;-35
2023/06/17 09:40:27;;;;;;;3.03;2.45;;;23.00;61.80;;;;;;5027200;28;20033;-35
2023/06/17 09:42:52;;;;;;;3.03;2.72;;;23.00;61.70;;;;;;5027987;28;20032;-35
2023/06/17 09:45:23;;;;;;;2.63;2.42;;;23.00;61.40;;;;;;5025696;28;20033;-39
2023/06/17 09:47:58;;;;;;;2.47;2.28;;;23.10;61.70;;;;;;5027234;28;20121;-33
2023/06/17 09:50:25;;;;;;;2.47;2.28;;;23.10;61.50;;;;;;5025520;28;20660;-32
2023/06/17 09:52:57;;;;;;;2.65;2.30;;;23.20;61.40;;;;;;5025426;28;20785;-33
2023/06/17 09:55:26;;;;;;;3.50;2.60;;;23.20;61.00;;;;;;5025735;28;20021;-34
2023/06/17 09:57:55;;;;;;;3.45;2.80;;;23.30;60.90;;;;;;5025670;28;20033;-34
2023/06/17 10:00:25;;;;;;;4.13;2.92;;;23.40;60.00;;;;;;5025928;28;20069;-33
2023/06/17 10:02:54;;;;;;;2.80;2.60;;;23.40;60.10;;;;;;5026503;28;20030;-33
2023/06/17 10:05:20;;;;;;;2.80;2.60;;;23.50;59.80;;;;;;5025544;28;20061;-34
2023/06/17 10:07:48;;;;;;;2.50;2.30;;;23.50;59.90;;;;;;5026414;28;20484;-34
2023/06/17 10:10:18;;;;;;;2.60;2.38;;;23.60;59.90;;;;;;5026763;28;20026;-35
2023/06/17 10:12:45;;;;;;;4.03;3.15;;;23.70;60.00;;;;;;5025894;28;20029;-34
2023/06/17 10:15:12;;;;;;;3.85;2.67;;;23.70;59.40;;;;;;5026140;28;20033;-33
2023/06/17 10:17:40;;;;;;;3.42;3.05;;;23.70;59.80;;;;;;5026217;28;20025;-34
2023/06/17 10:20:08;;;;;;;2.88;2.67;;;23.80;59.60;;;;;;5025694;28;20108;-34
2023/06/17 10:22:36;;;;;;;3.03;2.55;;;23.80;59.30;;;;;;5025874;28;20502;-34
2023/06/17 10:25:02;;;;;;;2.63;2.40;;;23.90;58.50;;;;;;5026235;28;20818;-34
2023/06/17 10:27:28;;;;;;;2.45;2.25;;;23.90;58.60;;;;;;5024981;28;20037;-35
2023/06/17 10:29:57;;;;;;;2.45;2.25;;;24.00;58.80;;;;;;5026560;28;20022;-34
2023/06/17 10:32:26;;;;;;;2.63;2.35;;;24.00;59.10;;;;;;5025722;28;20032;-34
2023/06/17 10:35:11;;;;;;;2.58;2.33;;;24.10;59.00;;;;;;5025157;28;20025;-35
2023/06/17 10:37:48;;;;;;;2.70;2.50;;;24.20;59.10;;;;;;5013394;28;20025;-33
2023/06/17 10:40:35;;;;;;;3.40;2.40;;;24.20;58.80;;;;;;5025504;28;20026;-34
2023/06/17 10:43:03;;;;;;;2.67;2.47;;;24.20;57.90;;;;;;5025759;28;20030;-35
2023/06/17 10:45:49;;;;;;;2.75;2.00;;;24.20;57.40;;;;;;5025971;28;20099;-33
2023/06/17 10:48:25;;;;;;;2.92;2.30;;;24.20;56.80;;;;;;5024936;28;20102;-39
2023/06/17 10:50:52;;;;;;;2.28;2.00;;;24.30;56.80;;;;;;5026091;28;20029;-34
2023/06/17 10:53:22;;;;;;;2.35;2.15;;;24.40;56.80;;;;;;5025469;28;20052;-34
2023/06/17 10:55:47;;;;;;;3.72;2.70;;;24.40;56.80;;;;;;5025625;28;20033;-34
2023/06/17 10:58:13;;;;;;;2.70;2.45;;;24.50;56.00;;;;;;5025766;28;20078;-33
2023/06/17 11:00:38;;;;;;;3.30;2.70;;;24.50;56.30;;;;;;5025463;28;20032;-34
2023/06/17 11:03:05;;;;;;;2.80;2.60;;;24.50;56.20;;;;;;5024751;28;20037;-33
2023/06/17 11:05:35;;;;;;;2.35;2.15;;;24.60;56.50;;;;;;5025402;28;20025;-34
2023/06/17 11:08:03;;;;;;;2.40;2.20;;;24.60;57.00;;;;;;5026042;28;20029;-35
2023/06/17 11:10:29;;;;;;;2.08;1.98;;;24.60;57.40;;;;;;5024683;28;20021;-34
2023/06/17 11:12:54;;;;;;;2.90;2.60;;;24.70;57.60;;;;;;5025878;28;20685;-34
2023/06/17 11:15:22;;;;;;;2.85;2.55;;;24.80;57.30;;;;;;5024597;28;20025;-34
2023/06/17 11:17:48;;;;;;;2.40;2.20;;;24.90;56.70;;;;;;5025748;28;20032;-35
2023/06/17 11:20:13;;;;;;;2.53;2.30;;;25.00;56.30;;;;;;5025095;28;20034;-34
2023/06/17 11:22:39;;;;;;;2.75;2.45;;;25.00;55.60;;;;;;5024593;28;20076;-33
2023/06/17 11:25:06;;;;;;;2.50;2.30;;;25.00;54.90;;;;;;5024000;28;20026;-34
2023/06/17 11:27:31;;;;;;;2.70;2.38;;;25.00;55.00;;;;;;5024671;28;20033;-34
2023/06/17 11:29:57;;;;;;;2.30;2.10;;;25.00;54.60;;;;;;5024706;28;20064;-34
2023/06/17 11:32:24;;;;;;;2.50;2.30;;;25.00;54.50;;;;;;5024712;28;20036;-35
2023/06/17 11:34:51;;;;;;;2.83;2.13;;;25.10;54.00;;;;;;5025080;28;20470;-40
2023/06/17 11:37:18;;;;;;;3.92;2.40;;;25.20;54.10;;;;;;5024231;28;20079;-35
2023/06/17 11:39:43;;;;;;;3.00;2.70;;;25.30;54.40;;;;;;5024347;28;20029;-35
2023/06/17 11:42:12;;;;;;;3.97;2.38;;;25.30;54.20;;;;;;5024505;28;20037;-34
2023/06/17 11:44:38;;;;;;;3.33;2.40;;;25.30;54.50;;;;;;5023582;28;20025;-34
2023/06/17 11:47:09;;;;;;;2.72;2.53;;;25.30;54.30;;;;;;5013843;28;20551;-35
2023/06/17 11:49:35;;;;;;;2.70;2.50;;;25.20;54.10;;;;;;5024443;28;20021;-34
2023/06/17 11:52:05;;;;;;;2.65;2.45;;;25.30;54.20;;;;;;5024419;28;20063;-34
2023/06/17 11:54:31;;;;;;;2.20;2.00;;;25.30;54.50;;;;;;5024846;28;20053;-34
2023/06/17 11:56:57;;;;;;;2.22;2.03;;;25.40;54.60;;;;;;5024841;28;20034;-34
2023/06/17 11:59:22;;;;;;;2.30;2.10;;;25.40;54.60;;;;;;5023607;28;20029;-34
2023/06/17 12:01:48;;;;;;;2.20;2.00;;;25.50;54.70;;;;;;5024546;28;20032;-33
2023/06/17 12:04:14;;;;;;;2.30;1.95;;;25.60;54.70;;;;;;5024603;28;20057;-35
2023/06/17 12:06:43;;;;;;;5.80;2.20;;;25.70;54.80;;;;;;5023705;28;20121;-33
2023/06/17 12:09:12;;;;;;;3.25;2.00;;;25.70;54.30;;;;;;5004326;28;20034;-35
2023/06/17 12:11:41;;;;;;;2.83;2.50;;;25.80;54.60;;;;;;5017620;28;20022;-33
2023/06/17 12:14:09;;;;;;;3.42;2.28;;;25.80;54.40;;;;;;5023837;28;20098;-34
2023/06/17 12:16:35;;;;;;;3.45;2.30;;;25.90;54.90;;;;;;5023484;28;20047;-34
2023/06/17 12:19:04;;;;;;;2.63;2.35;;;26.00;54.10;;;;;;5024380;28;20029;-34
2023/06/17 12:21:33;;;;;;;2.83;2.58;;;26.00;54.00;;;;;;5023972;28;20053;-34
2023/06/17 12:23:59;;;;;;;2.70;2.50;;;26.10;53.60;;;;;;5024438;28;20069;-34
2023/06/17 12:26:25;;;;;;;2.88;2.58;;;26.20;53.00;;;;;;5023377;28;20175;-34
2023/06/17 12:28:52;;;;;;;3.30;3.00;;;26.30;53.00;;;;;;5024831;28;20034;-33
2023/06/17 12:31:22;;;;;;;2.80;2.50;;;26.30;52.30;;;;;;5023770;28;20781;-35
2023/06/17 12:33:48;;;;;;;2.67;2.47;;;26.30;52.40;;;;;;5024465;28;20021;-33
2023/06/17 12:36:14;;;;;;;2.38;2.17;;;26.30;52.50;;;;;;5024063;28;20026;-34
2023/06/17 12:38:40;;;;;;;3.40;3.10;;;26.30;52.90;;;;;;5023669;28;20026;-34
2023/06/17 12:41:06;;;;;;;3.10;2.90;;;26.30;53.00;;;;;;5023368;28;20034;-35
2023/06/17 12:43:32;;;;;;;3.20;2.88;;;26.40;52.90;;;;;;5023533;28;20521;-34
2023/06/17 12:45:59;;;;;;;2.47;2.28;;;26.50;53.20;;;;;;5024255;28;20048;-33
2023/06/17 12:48:29;;;;;;;2.70;2.50;;;26.50;53.40;;;;;;5022660;28;20125;-34